K26 weather

Carrollton Memorial Airport
Carrollton, Missouri, United States

Public forecast

Using degrees Fahrenheit for public forecast. Weather courtesy of forecast.io.

METAR (pilot weather report)

Closest report is Marshall Memorial Municipal Airport, 19.2 nm (35.5 km) SE. Retrieved 2019/08/20 15:35 UTC (0 seconds ago):

KMHL 201535Z AUTO 29003KT 10SM CLR 28/24 A3000 RMK AO2 TSNO

TAF (pilot weather forecast)

Closest forecast is Whiteman Air Force Base, 34.9 nm (64.7 km) S. Retrieved 2019/08/20 11:03 UTC (4 hours ago):

TAF KSZL 201100Z 2011/2117 VRB06KT 9999 BKN150 QNH2993INS BECMG 2016/2017 22012G20KT 6000 -SHRA BKN030 OVC100 QNH2985INS TEMPO 2018/2021 34020G35KT 1600 TSRA BKN020CB OVC030 BECMG 2022/2023 25012KT 9999 NSW SCT030 BKN150 QNH2986INS TX35/2019Z TN25/2011Z